Time;durP1;ratioP1;P1;durP2;ratioP2;P2;SDS_P1;SDS_P2;PMS_P1;PMS_P2;Temp;Humidity;BMP_temperature;BMP_pressure;BME280_temperature;BME280_humidity;BME280_pressure;Samples;Min_cycle;Max_cycle;Signal;HPM_P1;HPM_P2
2022/06/05 00:00:36;;;;;;;8.00;4.88;;;22.20;58.20;;;;;;4981470;28;86194;-70
2022/06/05 00:03:32;;;;;;;6.10;4.85;;;22.20;58.10;;;;;;4991935;28;86697;-71
2022/06/05 00:06:13;;;;;;;6.68;4.85;;;22.20;58.10;;;;;;4991816;28;86849;-70
2022/06/05 00:09:16;;;;;;;6.03;4.78;;;22.20;58.20;;;;;;4981240;28;88459;-70
2022/06/05 00:12:01;;;;;;;6.28;4.70;;;22.20;58.30;;;;;;4991684;28;86985;-70
2022/06/05 00:14:27;;;;;;;6.43;5.05;;;22.20;58.20;;;;;;4991257;28;86109;-69
2022/06/05 00:16:53;;;;;;;7.28;5.13;;;22.20;58.30;;;;;;4991960;28;87102;-71
2022/06/05 00:19:18;;;;;;;5.95;4.85;;;22.20;58.40;;;;;;4991825;28;85743;-71
2022/06/05 00:21:44;;;;;;;6.00;4.68;;;22.20;58.30;;;;;;4991638;28;86464;-70
2022/06/05 00:24:10;;;;;;;6.82;5.00;;;22.20;58.30;;;;;;4990710;28;86359;-70
2022/06/05 00:26:51;;;;;;;7.90;4.80;;;22.10;58.40;;;;;;4991156;28;86788;-71
2022/06/05 00:29:30;;;;;;;5.00;4.50;;;22.20;58.50;;;;;;4991540;28;86530;-70
2022/06/05 00:32:24;;;;;;;8.20;5.45;;;22.20;58.50;;;;;;4991585;28;86000;-71
2022/06/05 00:34:50;;;;;;;7.43;4.72;;;22.10;58.80;;;;;;4991286;28;86260;-70
2022/06/05 00:37:43;;;;;;;8.43;5.45;;;22.10;58.90;;;;;;4991331;28;86788;-71
2022/06/05 00:40:27;;;;;;;6.55;5.15;;;22.10;59.00;;;;;;4990251;28;88145;-70
2022/06/05 00:42:52;;;;;;;5.57;4.70;;;22.10;59.30;;;;;;4979682;28;86810;-70
2022/06/05 00:45:19;;;;;;;5.53;4.72;;;22.10;59.20;;;;;;4990783;28;86000;-71
2022/06/05 00:47:46;;;;;;;5.38;4.75;;;22.10;59.30;;;;;;4991133;28;86573;-70
2022/06/05 00:50:23;;;;;;;6.13;4.30;;;22.10;59.40;;;;;;4990926;28;86588;-70
2022/06/05 00:52:55;;;;;;;5.70;4.60;;;22.10;59.60;;;;;;4991077;28;86608;-70
2022/06/05 00:55:23;;;;;;;7.80;5.13;;;22.10;59.50;;;;;;4991387;28;86545;-70
2022/06/05 00:57:49;;;;;;;5.72;4.82;;;22.10;59.40;;;;;;4990594;28;86875;-70
2022/06/05 01:00:20;;;;;;;5.47;4.28;;;22.10;59.40;;;;;;4990429;28;86389;-69
2022/06/05 01:02:50;;;;;;;5.93;5.40;;;22.10;59.60;;;;;;4990908;28;86029;-70
2022/06/05 01:05:18;;;;;;;4.80;4.30;;;22.10;59.40;;;;;;4990890;28;86202;-70
2022/06/05 01:07:43;;;;;;;5.93;4.50;;;22.10;59.50;;;;;;4991128;28;88188;-70
2022/06/05 01:10:10;;;;;;;5.68;4.32;;;22.10;59.40;;;;;;4977561;28;89203;-70
2022/06/05 01:12:55;;;;;;;4.80;4.40;;;22.10;59.40;;;;;;4989961;28;86854;-69
2022/06/05 01:15:28;;;;;;;6.95;5.05;;;22.10;59.80;;;;;;4990811;28;86201;-70
2022/06/05 01:18:17;;;;;;;5.57;4.43;;;22.10;59.60;;;;;;4990034;28;86625;-70
2022/06/05 01:20:57;;;;;;;7.72;4.95;;;22.10;59.70;;;;;;4988576;28;86093;-71
2022/06/05 01:23:53;;;;;;;5.45;4.95;;;22.10;59.70;;;;;;4990643;28;86263;-71
2022/06/05 01:26:25;;;;;;;5.30;4.80;;;22.10;59.60;;;;;;4989325;28;87087;-71
2022/06/05 01:29:01;;;;;;;5.10;4.60;;;22.10;59.90;;;;;;4989345;28;86190;-70
2022/06/05 01:31:45;;;;;;;8.98;5.20;;;22.10;59.60;;;;;;4989482;28;86770;-70
2022/06/05 01:34:44;;;;;;;5.68;5.05;;;22.10;60.20;;;;;;4990198;28;86406;-71
2022/06/05 01:37:31;;;;;;;5.75;4.90;;;22.10;60.00;;;;;;4990686;28;85908;-71
2022/06/05 01:40:09;;;;;;;5.20;4.70;;;22.10;60.20;;;;;;4976220;28;89888;-71
2022/06/05 01:42:46;;;;;;;5.72;5.13;;;22.10;59.90;;;;;;4977065;28;89257;-71
2022/06/05 01:45:29;;;;;;;7.28;5.28;;;22.10;60.00;;;;;;4989474;28;87272;-69
2022/06/05 01:47:58;;;;;;;5.75;4.65;;;22.10;60.00;;;;;;4989722;28;86680;-69
2022/06/05 01:50:30;;;;;;;5.28;4.70;;;22.10;59.90;;;;;;4989398;28;85930;-70
2022/06/05 01:53:10;;;;;;;5.15;4.65;;;22.10;59.90;;;;;;4989601;28;86556;-69
2022/06/05 01:55:55;;;;;;;5.05;4.55;;;22.10;59.90;;;;;;4992284;28;86213;-69
2022/06/05 01:58:52;;;;;;;6.00;5.13;;;22.10;59.90;;;;;;4993542;28;86350;-70
2022/06/05 02:01:22;;;;;;;7.20;5.45;;;22.10;59.80;;;;;;4993298;28;87029;-70
2022/06/05 02:04:14;;;;;;;6.10;5.50;;;22.10;60.00;;;;;;4980802;28;89525;-70
2022/06/05 02:06:53;;;;;;;5.10;4.55;;;22.10;60.10;;;;;;4992122;28;86455;-70
2022/06/05 02:09:28;;;;;;;4.93;4.40;;;22.10;60.00;;;;;;4993326;28;86360;-69
2022/06/05 02:11:54;;;;;;;5.28;4.60;;;22.10;60.00;;;;;;4982568;28;89531;-70
2022/06/05 02:14:20;;;;;;;5.80;4.88;;;22.10;59.90;;;;;;4992573;28;86858;-69
2022/06/05 02:16:46;;;;;;;7.30;5.18;;;22.10;59.70;;;;;;4992488;28;86793;-69
2022/06/05 02:19:17;;;;;;;6.30;4.95;;;22.10;59.70;;;;;;4993319;28;86719;-71
2022/06/05 02:21:43;;;;;;;5.65;4.78;;;22.10;59.60;;;;;;4991391;28;90579;-70
2022/06/05 02:24:11;;;;;;;5.53;4.60;;;22.10;59.70;;;;;;4993625;28;86098;-70
2022/06/05 02:26:36;;;;;;;5.53;4.85;;;22.10;60.00;;;;;;4993754;28;85612;-70
2022/06/05 02:29:07;;;;;;;5.28;4.50;;;22.10;59.80;;;;;;4992845;28;86744;-70
2022/06/05 02:31:51;;;;;;;4.82;4.32;;;22.10;59.80;;;;;;4992477;28;86738;-70
2022/06/05 02:34:32;;;;;;;6.10;4.45;;;22.10;59.60;;;;;;4991720;28;86068;-70
2022/06/05 02:37:32;;;;;;;5.60;5.10;;;22.10;59.50;;;;;;4992047;28;85667;-70
2022/06/05 02:40:19;;;;;;;5.30;4.80;;;22.10;59.60;;;;;;4977152;28;85769;-69
2022/06/05 02:42:56;;;;;;;5.38;4.88;;;22.10;59.70;;;;;;4993841;28;86796;-70
2022/06/05 02:45:43;;;;;;;6.07;5.00;;;22.10;59.70;;;;;;4992657;28;86189;-70
2022/06/05 02:48:15;;;;;;;6.28;4.72;;;22.10;60.00;;;;;;4992731;28;86072;-70
2022/06/05 02:51:21;;;;;;;5.80;4.68;;;22.10;59.90;;;;;;4985113;28;86482;-70
2022/06/05 02:53:53;;;;;;;5.38;4.10;;;22.10;59.80;;;;;;4987599;28;88204;-69
2022/06/05 02:56:20;;;;;;;5.07;4.45;;;22.10;59.80;;;;;;4991690;28;86402;-69
2022/06/05 02:58:47;;;;;;;5.50;4.72;;;22.10;60.30;;;;;;4992134;28;86595;-70
2022/06/05 03:03:57;;;;;;;5.88;4.07;;;22.10;59.60;;;;;;4992628;28;85933;-69
2022/06/05 03:06:23;;;;;;;4.70;4.07;;;22.10;59.60;;;;;;4991949;28;86558;-69
2022/06/05 03:08:48;;;;;;;5.13;4.28;;;22.10;59.90;;;;;;4992318;28;86096;-70
2022/06/05 03:11:14;;;;;;;6.20;4.25;;;22.10;59.70;;;;;;4983224;28;86704;-70
2022/06/05 03:13:40;;;;;;;5.75;4.90;;;22.10;59.80;;;;;;4992736;28;86812;-70
2022/06/05 03:16:07;;;;;;;4.88;4.38;;;22.00;59.70;;;;;;4993091;28;87488;-71
2022/06/05 03:18:34;;;;;;;4.95;4.15;;;22.10;59.70;;;;;;4992709;28;86622;-70
2022/06/05 03:20:59;;;;;;;4.85;4.30;;;22.10;59.90;;;;;;4993013;28;85587;-70
2022/06/05 03:23:26;;;;;;;4.82;4.30;;;22.00;59.80;;;;;;4991937;28;86849;-71
2022/06/05 03:25:52;;;;;;;6.80;4.60;;;22.10;59.80;;;;;;4991266;28;86477;-70
2022/06/05 03:28:18;;;;;;;5.85;4.30;;;22.10;59.60;;;;;;4991916;28;86218;-71
2022/06/05 03:30:43;;;;;;;4.50;4.10;;;22.00;59.60;;;;;;4991529;28;86603;-70
2022/06/05 03:33:10;;;;;;;5.25;4.30;;;22.00;59.70;;;;;;4983378;28;89178;-69
2022/06/05 03:35:43;;;;;;;4.75;4.10;;;22.00;59.70;;;;;;4992315;28;86243;-71
2022/06/05 03:38:09;;;;;;;5.70;4.10;;;22.00;59.80;;;;;;4992089;28;86389;-69
2022/06/05 03:40:38;;;;;;;5.50;4.93;;;22.00;59.80;;;;;;4991328;28;86569;-71
2022/06/05 03:43:04;;;;;;;4.85;4.32;;;22.00;59.80;;;;;;4991629;28;86395;-71
2022/06/05 03:45:29;;;;;;;7.32;4.20;;;22.00;59.70;;;;;;4992228;28;86646;-71
2022/06/05 03:47:55;;;;;;;4.60;4.20;;;22.00;59.70;;;;;;4992185;28;86715;-70
2022/06/05 03:50:21;;;;;;;4.15;3.80;;;22.00;59.60;;;;;;4992209;28;86189;-71
2022/06/05 03:52:47;;;;;;;4.18;3.78;;;22.00;59.70;;;;;;4992045;28;87413;-70
2022/06/05 03:55:17;;;;;;;4.72;3.80;;;22.00;59.50;;;;;;4992566;28;86461;-70
2022/06/05 03:57:42;;;;;;;5.22;4.30;;;22.00;59.50;;;;;;4992194;28;86142;-70
2022/06/05 04:00:09;;;;;;;5.22;4.20;;;22.00;59.50;;;;;;4991949;28;86806;-69
2022/06/05 04:02:35;;;;;;;4.68;3.95;;;22.00;59.50;;;;;;4991963;28;87416;-69
2022/06/05 04:05:03;;;;;;;4.78;4.15;;;22.00;59.30;;;;;;4990848;28;86805;-70
2022/06/05 04:07:29;;;;;;;6.22;4.47;;;22.00;59.50;;;;;;4990684;28;86244;-70
2022/06/05 04:09:55;;;;;;;4.20;3.80;;;22.00;59.50;;;;;;4991172;28;86749;-69
2022/06/05 04:12:20;;;;;;;4.85;4.22;;;22.10;59.40;;;;;;4991322;28;87268;-70
2022/06/05 04:14:46;;;;;;;4.10;3.70;;;22.00;59.30;;;;;;4990662;28;85978;-70
2022/06/05 04:17:12;;;;;;;4.97;4.47;;;22.00;59.30;;;;;;4989992;28;86739;-70
2022/06/05 04:19:38;;;;;;;5.63;4.47;;;22.00;59.30;;;;;;4991828;28;86128;-70
2022/06/05 04:22:04;;;;;;;3.90;3.60;;;22.00;59.40;;;;;;4981760;28;89593;-70
2022/06/05 04:24:29;;;;;;;5.25;4.50;;;22.00;59.40;;;;;;4990969;28;86347;-70
2022/06/05 04:26:55;;;;;;;4.65;4.07;;;22.00;59.40;;;;;;4991061;28;86329;-70
2022/06/05 04:29:21;;;;;;;5.07;4.28;;;22.00;59.40;;;;;;4991603;28;86276;-72
2022/06/05 04:31:48;;;;;;;4.55;3.83;;;22.00;59.50;;;;;;4991093;28;86839;-71
2022/06/05 04:34:17;;;;;;;4.28;3.88;;;22.00;59.60;;;;;;4990593;28;86430;-69
2022/06/05 04:36:43;;;;;;;;;;;22.00;59.50;;;;;;4981937;28;87194;-70
2022/06/05 04:39:09;;;;;;;4.75;4.00;;;22.10;59.60;;;;;;4983006;28;85935;-71
2022/06/05 04:41:35;;;;;;;4.30;3.90;;;22.00;59.60;;;;;;4990645;28;86491;-71
2022/06/05 04:44:01;;;;;;;4.47;3.85;;;22.00;59.50;;;;;;4991293;28;87557;-70
2022/06/05 04:46:29;;;;;;;4.50;3.88;;;22.00;59.60;;;;;;4990843;28;86961;-69
2022/06/05 04:48:56;;;;;;;4.18;3.78;;;22.00;59.60;;;;;;4990771;28;86140;-72
2022/06/05 04:51:22;;;;;;;4.32;3.92;;;22.00;59.60;;;;;;4973864;28;89967;-71
2022/06/05 04:53:49;;;;;;;4.10;3.70;;;22.00;59.80;;;;;;4979789;28;89692;-72
2022/06/05 04:56:26;;;;;;;4.28;3.55;;;22.00;59.80;;;;;;4990720;28;86820;-71
2022/06/05 04:58:53;;;;;;;4.38;3.90;;;22.00;59.80;;;;;;4990286;28;86403;-71
2022/06/05 05:01:25;;;;;;;4.43;4.03;;;22.00;59.90;;;;;;4991292;28;86390;-70
2022/06/05 05:03:53;;;;;;;4.30;3.90;;;22.00;59.80;;;;;;4991007;28;86655;-72
2022/06/05 05:06:19;;;;;;;4.22;3.83;;;22.00;59.80;;;;;;4980555;28;86593;-69
2022/06/05 05:08:44;;;;;;;4.13;3.78;;;22.00;60.60;;;;;;4990363;28;86620;-70
2022/06/05 05:11:10;;;;;;;4.57;3.97;;;22.00;59.80;;;;;;4990141;28;87205;-71
2022/06/05 05:13:36;;;;;;;4.57;4.10;;;22.00;59.80;;;;;;4989735;28;86626;-71
2022/06/05 05:16:02;;;;;;;4.47;4.00;;;22.00;59.90;;;;;;4989432;28;86440;-70
2022/06/05 05:18:27;;;;;;;4.75;3.92;;;22.00;59.80;;;;;;4990703;28;86241;-70
2022/06/05 05:20:53;;;;;;;4.50;3.95;;;22.00;59.70;;;;;;4989973;28;87128;-69
2022/06/05 05:23:19;;;;;;;4.72;3.58;;;22.00;59.70;;;;;;4990756;28;86334;-70
2022/06/05 05:25:46;;;;;;;5.07;4.30;;;22.00;59.80;;;;;;4989450;28;86406;-70
2022/06/05 05:28:13;;;;;;;4.20;3.80;;;22.00;59.80;;;;;;4979148;28;86243;-70
2022/06/05 05:30:44;;;;;;;4.28;3.78;;;22.00;59.80;;;;;;4978811;28;89924;-70
2022/06/05 05:33:10;;;;;;;4.90;3.80;;;22.00;60.50;;;;;;4993922;28;86679;-69
2022/06/05 05:35:35;;;;;;;4.45;4.05;;;22.00;60.60;;;;;;4993904;28;86457;-70
2022/06/05 05:38:01;;;;;;;4.43;3.60;;;22.00;60.40;;;;;;4993862;28;86809;-69
2022/06/05 05:43:10;;;;;;;5.57;4.47;;;22.00;60.80;;;;;;4992478;28;86703;-70
2022/06/05 05:45:36;;;;;;;5.10;4.60;;;22.00;60.50;;;;;;4993249;28;85805;-70
2022/06/05 05:48:02;;;;;;;8.25;4.32;;;22.00;60.70;;;;;;4992990;28;86251;-71
2022/06/05 05:50:27;;;;;;;7.20;5.00;;;22.00;60.20;;;;;;4994065;28;87039;-70
2022/06/05 05:52:53;;;;;;;8.05;5.13;;;22.10;61.00;;;;;;4993530;28;86657;-69
2022/06/05 05:55:20;;;;;;;5.38;4.72;;;22.10;61.00;;;;;;4994437;28;86559;-68
2022/06/05 05:57:47;;;;;;;6.22;4.60;;;22.10;61.10;;;;;;4994288;28;86303;-70
2022/06/05 06:00:15;;;;;;;8.48;4.50;;;22.00;61.30;;;;;;4994029;28;86723;-69
2022/06/05 06:02:41;;;;;;;6.88;5.15;;;22.00;61.50;;;;;;4982158;28;88181;-70
2022/06/05 06:05:09;;;;;;;5.13;4.63;;;22.10;61.60;;;;;;4992726;28;86534;-70
2022/06/05 06:07:35;;;;;;;5.40;4.88;;;22.00;61.70;;;;;;4993130;28;86586;-70
2022/06/05 06:10:01;;;;;;;5.07;4.57;;;22.00;61.90;;;;;;4993044;28;86204;-70
2022/06/05 06:12:27;;;;;;;5.78;4.45;;;22.00;61.70;;;;;;4993740;28;86365;-69
2022/06/05 06:14:53;;;;;;;6.82;4.95;;;22.00;61.80;;;;;;4993842;28;85635;-70
2022/06/05 06:17:19;;;;;;;6.30;4.63;;;22.00;61.70;;;;;;4994006;28;86341;-70
2022/06/05 06:19:44;;;;;;;5.25;4.75;;;22.00;61.50;;;;;;4993048;28;87329;-71
2022/06/05 06:22:10;;;;;;;7.63;4.53;;;22.00;60.90;;;;;;4992842;28;86699;-70
2022/06/05 06:24:36;;;;;;;5.53;4.47;;;22.00;60.70;;;;;;4993209;28;85585;-70
2022/06/05 06:27:02;;;;;;;5.18;4.50;;;22.10;60.30;;;;;;4993218;28;85909;-71
2022/06/05 06:29:28;;;;;;;5.22;4.72;;;22.10;60.30;;;;;;4993039;28;87929;-70
2022/06/05 06:31:57;;;;;;;4.82;4.00;;;22.10;60.40;;;;;;4993665;28;86103;-71
2022/06/05 06:34:22;;;;;;;5.13;4.57;;;22.10;60.80;;;;;;4994396;28;86159;-70
2022/06/05 06:36:48;;;;;;;5.57;4.18;;;22.10;60.80;;;;;;4980976;28;86795;-70
2022/06/05 06:39:14;;;;;;;5.45;4.18;;;22.10;60.60;;;;;;4992830;28;86744;-71
2022/06/05 06:41:40;;;;;;;4.47;4.07;;;22.10;60.40;;;;;;4992604;28;86632;-70
2022/06/05 06:44:06;;;;;;;4.78;4.15;;;22.10;60.50;;;;;;4992672;28;86294;-71
2022/06/05 06:46:32;;;;;;;55.97;11.90;;;22.10;60.70;;;;;;4980723;28;86367;-71
2022/06/05 06:48:57;;;;;;;44.20;14.90;;;22.10;60.80;;;;;;4992112;28;87360;-71
2022/06/05 06:51:23;;;;;;;47.90;14.55;;;22.10;62.80;;;;;;4993625;28;86733;-71
2022/06/05 06:53:50;;;;;;;44.30;12.95;;;22.10;62.70;;;;;;4993069;28;86046;-71
2022/06/05 06:56:22;;;;;;;27.73;11.18;;;22.10;63.30;;;;;;4994334;28;85815;-71
2022/06/05 06:58:48;;;;;;;28.05;10.23;;;22.10;63.70;;;;;;4993261;28;86791;-71
2022/06/05 07:01:14;;;;;;;25.98;9.57;;;22.10;64.10;;;;;;4992415;28;86121;-71
2022/06/05 07:03:40;;;;;;;24.27;9.38;;;22.10;64.70;;;;;;4993858;28;86383;-71
2022/06/05 07:06:09;;;;;;;16.83;8.82;;;22.10;64.80;;;;;;4993407;28;86741;-71
2022/06/05 07:08:35;;;;;;;20.95;8.57;;;22.10;64.90;;;;;;4992615;28;86492;-71
2022/06/05 07:11:03;;;;;;;15.60;7.72;;;22.10;64.80;;;;;;4991255;28;86160;-70
2022/06/05 07:13:29;;;;;;;13.85;7.90;;;22.10;64.70;;;;;;4992034;28;86427;-69
2022/06/05 07:15:55;;;;;;;23.75;8.60;;;22.10;65.30;;;;;;4987795;28;86484;-72
2022/06/05 07:18:20;;;;;;;17.52;7.70;;;22.10;65.10;;;;;;4992526;28;86604;-72
2022/06/05 07:20:46;;;;;;;16.27;7.53;;;22.10;65.20;;;;;;4975631;28;89783;-71
2022/06/05 07:23:13;;;;;;;11.63;7.63;;;22.10;64.70;;;;;;4992621;28;86403;-70
2022/06/05 07:25:55;;;;;;;15.50;7.70;;;22.10;65.10;;;;;;4989507;28;86179;-70
2022/06/05 07:28:23;;;;;;;11.38;7.20;;;22.10;65.40;;;;;;4971288;28;89847;-70
2022/06/05 07:30:51;;;;;;;12.82;7.68;;;22.10;66.20;;;;;;4996959;28;86847;-70
2022/06/05 07:33:18;;;;;;;16.48;7.60;;;22.10;65.60;;;;;;4990839;28;86810;-71
2022/06/05 07:35:44;;;;;;;13.30;7.60;;;22.10;66.20;;;;;;4991467;28;86330;-70
2022/06/05 07:38:11;;;;;;;9.90;7.43;;;22.10;66.00;;;;;;4991663;28;86758;-70
2022/06/05 07:40:41;;;;;;;12.50;8.27;;;22.10;66.40;;;;;;4991423;28;86902;-70
2022/06/05 07:43:09;;;;;;;10.93;6.72;;;22.10;66.00;;;;;;4993452;28;85975;-71
2022/06/05 07:45:36;;;;;;;21.27;6.85;;;22.10;66.50;;;;;;4978799;28;85755;-71
2022/06/05 07:48:02;;;;;;;16.55;6.80;;;22.10;66.50;;;;;;4990516;28;86942;-70
2022/06/05 07:50:28;;;;;;;8.80;7.35;;;22.10;66.70;;;;;;4992250;28;87052;-70
2022/06/05 07:55:38;;;;;;;16.70;7.88;;;22.10;66.80;;;;;;4990667;28;86178;-69
2022/06/05 07:58:04;;;;;;;15.13;7.22;;;22.10;67.50;;;;;;4992636;28;86932;-70
2022/06/05 08:00:29;;;;;;;11.70;6.90;;;22.10;67.10;;;;;;4993074;28;87908;-70
2022/06/05 08:02:55;;;;;;;9.30;7.03;;;22.10;66.90;;;;;;4979738;28;86693;-70
2022/06/05 08:05:20;;;;;;;11.48;7.03;;;22.10;67.30;;;;;;4991131;28;86212;-71
2022/06/05 08:07:46;;;;;;;9.48;6.97;;;22.10;67.10;;;;;;4991373;28;86745;-70
2022/06/05 08:10:12;;;;;;;7.90;7.10;;;22.10;67.30;;;;;;4991107;28;86338;-70
2022/06/05 08:12:38;;;;;;;8.07;6.75;;;22.10;68.20;;;;;;4990667;28;85621;-70
2022/06/05 08:15:08;;;;;;;9.40;6.93;;;22.10;66.60;;;;;;4991340;28;86577;-70
2022/06/05 08:17:35;;;;;;;11.57;6.72;;;22.10;66.50;;;;;;4990300;28;86958;-70
2022/06/05 08:20:00;;;;;;;10.85;7.50;;;22.10;67.50;;;;;;4982570;28;90976;-70
2022/06/05 08:22:28;;;;;;;10.77;6.95;;;22.10;67.10;;;;;;4991237;28;86002;-71
2022/06/05 08:24:54;;;;;;;8.57;7.60;;;22.10;67.80;;;;;;4990772;28;86265;-70
2022/06/05 08:27:23;;;;;;;10.40;7.15;;;22.10;67.80;;;;;;4989811;28;85721;-70
2022/06/05 08:29:49;;;;;;;;;;;22.10;67.50;;;;;;4990957;28;86733;-70
2022/06/05 08:32:15;;;;;;;11.48;6.82;;;22.10;67.60;;;;;;4991933;28;86927;-70
2022/06/05 08:34:42;;;;;;;13.82;7.45;;;22.10;67.60;;;;;;4990379;28;86248;-70
2022/06/05 08:43:14;;;;;;;8.25;7.22;;;22.10;68.70;;;;;;4991248;28;86867;-69
2022/06/05 08:46:09;;;;;;;10.23;7.45;;;22.10;69.30;;;;;;4990648;28;86224;-70
2022/06/05 08:48:41;;;;;;;8.73;7.45;;;22.10;68.60;;;;;;4975688;28;87266;-70
2022/06/05 08:51:30;;;;;;;8.98;7.10;;;22.10;68.40;;;;;;4991005;28;87592;-70
2022/06/05 08:54:02;;;;;;;9.63;6.93;;;22.10;69.10;;;;;;4990672;28;86729;-70
2022/06/05 08:56:39;;;;;;;15.40;8.60;;;22.10;68.40;;;;;;4987633;28;85727;-69
2022/06/05 08:59:20;;;;;;;17.63;9.30;;;22.10;69.90;;;;;;4984082;28;86735;-70
2022/06/05 09:01:49;;;;;;;13.95;7.95;;;22.10;70.00;;;;;;4974665;28;87264;-69
2022/06/05 09:04:27;;;;;;;15.38;8.70;;;22.10;69.60;;;;;;4992145;28;85690;-70
2022/06/05 09:07:04;;;;;;;17.20;9.68;;;22.10;69.70;;;;;;4991807;28;86551;-73
2022/06/05 09:10:05;;;;;;;13.10;8.93;;;22.10;70.50;;;;;;4992643;28;86078;-70
2022/06/05 09:12:38;;;;;;;11.07;8.10;;;22.10;70.40;;;;;;4994196;28;85888;-71
2022/06/05 09:15:16;;;;;;;10.55;8.23;;;22.10;69.20;;;;;;4986225;28;86811;-70
2022/06/05 09:17:51;;;;;;;14.20;8.23;;;22.10;70.20;;;;;;4994079;28;85958;-70
2022/06/05 09:20:18;;;;;;;9.98;8.05;;;22.10;71.10;;;;;;4994478;28;86746;-70
2022/06/05 09:22:59;;;;;;;13.57;7.95;;;22.10;69.80;;;;;;4992897;28;86608;-69
2022/06/05 09:26:09;;;;;;;18.40;9.35;;;22.10;69.90;;;;;;5008032;28;86741;-70
2022/06/05 09:28:45;;;;;;;21.55;10.52;;;22.10;70.10;;;;;;4982119;28;86521;-71
2022/06/05 09:31:48;;;;;;;25.08;10.88;;;22.10;70.60;;;;;;4992092;28;87200;-71
2022/06/05 09:34:18;;;;;;;22.05;10.50;;;22.10;71.50;;;;;;4992029;28;86205;-70
2022/06/05 09:36:56;;;;;;;29.05;11.30;;;22.10;71.50;;;;;;4991136;28;85737;-70
2022/06/05 09:39:25;;;;;;;23.48;10.95;;;22.10;72.70;;;;;;4991863;28;87032;-70
2022/06/05 09:41:51;;;;;;;;;;;22.10;71.80;;;;;;4992953;28;86345;-70
2022/06/05 09:44:24;;;;;;;21.42;10.73;;;22.10;72.10;;;;;;4994806;28;86265;-71
2022/06/05 09:47:01;;;;;;;23.42;10.93;;;22.10;71.00;;;;;;4992600;28;86521;-70
2022/06/05 09:49:43;;;;;;;23.67;10.57;;;22.10;72.00;;;;;;4992666;28;86096;-70
2022/06/05 09:52:15;;;;;;;21.65;10.63;;;22.10;70.90;;;;;;4992090;28;86057;-70
2022/06/05 09:54:57;;;;;;;21.05;10.50;;;22.10;71.00;;;;;;4992505;28;86503;-69
2022/06/05 10:00:45;;;;;;;21.77;11.00;;;22.10;71.00;;;;;;4993844;28;86519;-70
2022/06/05 10:03:14;;;;;;;16.50;9.93;;;22.10;70.90;;;;;;4991070;28;86729;-70
2022/06/05 10:05:45;;;;;;;;;;;22.10;71.10;;;;;;4978100;28;90104;-70
2022/06/05 10:08:22;;;;;;;17.10;10.07;;;22.10;71.30;;;;;;4977823;28;85779;-70
2022/06/05 10:10:52;;;;;;;19.30;9.95;;;22.10;71.30;;;;;;4992519;28;86749;-71
2022/06/05 10:13:48;;;;;;;16.52;9.63;;;22.10;71.10;;;;;;4985265;28;89640;-70
2022/06/05 10:16:43;;;;;;;16.27;9.65;;;22.10;71.70;;;;;;4992644;28;86746;-71
2022/06/05 10:19:13;;;;;;;17.52;9.85;;;22.10;72.70;;;;;;4993104;28;86576;-70
2022/06/05 10:21:50;;;;;;;18.70;10.30;;;22.10;72.00;;;;;;4992178;28;86060;-71
2022/06/05 10:24:38;;;;;;;17.65;9.75;;;22.10;71.40;;;;;;4991492;28;87279;-70
2022/06/05 10:27:05;;;;;;;20.80;10.40;;;22.10;72.70;;;;;;4991546;28;87597;-70
2022/06/05 10:29:47;;;;;;;16.42;9.98;;;22.10;72.30;;;;;;4991964;28;86135;-70
2022/06/05 10:32:25;;;;;;;15.60;10.60;;;22.10;71.90;;;;;;4984265;28;86931;-70
2022/06/05 10:35:13;;;;;;;16.30;8.93;;;22.10;72.80;;;;;;4991205;28;86463;-70
2022/06/05 10:38:10;;;;;;;17.30;11.80;;;22.10;72.30;;;;;;4992425;28;86277;-71
2022/06/05 10:40:53;;;;;;;13.90;10.57;;;22.10;75.60;;;;;;4981633;28;86393;-70
2022/06/05 10:43:26;;;;;;;21.13;10.02;;;22.10;74.20;;;;;;4991397;28;86745;-71
2022/06/05 10:45:52;;;;;;;20.30;10.00;;;22.10;72.90;;;;;;4991482;28;86938;-70
2022/06/05 10:48:24;;;;;;;14.75;9.55;;;22.10;72.30;;;;;;4942267;27;86654;-70
2022/06/05 10:51:21;;;;;;;25.38;10.05;;;22.10;71.90;;;;;;5004161;28;86470;-71
2022/06/05 10:54:20;;;;;;;14.80;9.85;;;22.10;71.80;;;;;;4987777;28;86284;-70
2022/06/05 10:57:04;;;;;;;14.90;10.65;;;22.10;72.50;;;;;;4991756;28;85886;-70
2022/06/05 10:59:48;;;;;;;16.25;9.90;;;22.10;74.20;;;;;;4991786;28;86718;-70
2022/06/05 11:02:26;;;;;;;13.20;10.10;;;22.20;73.80;;;;;;4992695;28;87179;-70
2022/06/05 11:05:19;;;;;;;17.30;9.02;;;22.20;74.50;;;;;;4991409;28;86902;-70
2022/06/05 11:07:51;;;;;;;19.55;10.07;;;22.20;73.80;;;;;;4992072;28;86811;-71
2022/06/05 11:13:42;;;;;;;14.90;10.50;;;22.20;75.30;;;;;;4990011;28;86169;-69
2022/06/05 11:16:16;;;;;;;12.57;9.85;;;22.20;74.80;;;;;;4991560;28;86416;-70
2022/06/05 11:18:47;;;;;;;12.15;9.05;;;22.20;75.70;;;;;;4991650;28;86842;-70
2022/06/05 11:21:17;;;;;;;11.60;9.15;;;22.20;75.70;;;;;;4992192;28;85900;-70
2022/06/05 11:23:46;;;;;;;12.75;9.38;;;22.20;74.20;;;;;;4992015;28;86641;-70
2022/06/05 11:26:52;;;;;;;14.10;9.15;;;22.20;74.70;;;;;;4991019;28;86647;-70
2022/06/05 11:29:37;;;;;;;11.80;8.65;;;22.20;75.20;;;;;;4960741;28;86403;-71
2022/06/05 11:32:23;;;;;;;15.13;10.02;;;22.10;75.00;;;;;;5003717;28;89061;-69
2022/06/05 11:34:49;;;;;;;12.82;9.18;;;22.10;73.90;;;;;;4991209;28;86713;-70
2022/06/05 11:37:34;;;;;;;13.60;9.23;;;22.10;74.10;;;;;;4991272;28;87169;-70
2022/06/05 11:40:27;;;;;;;12.18;8.60;;;22.10;73.30;;;;;;4992001;28;86169;-71
2022/06/05 11:43:30;;;;;;;14.82;9.10;;;22.10;73.60;;;;;;4992381;28;86449;-71
2022/06/05 11:46:01;;;;;;;9.90;8.68;;;22.10;73.70;;;;;;4991064;28;86157;-70
2022/06/05 11:48:42;;;;;;;11.23;9.20;;;22.10;73.70;;;;;;4987238;28;86976;-70
2022/06/05 11:51:31;;;;;;;11.48;8.93;;;22.10;73.30;;;;;;4991494;28;86339;-71
2022/06/05 11:54:15;;;;;;;9.73;8.50;;;22.10;73.20;;;;;;4991817;28;86811;-70
2022/06/05 11:56:53;;;;;;;10.23;8.80;;;22.10;73.00;;;;;;4992337;28;86025;-70
2022/06/05 12:00:00;;;;;;;10.75;9.05;;;22.10;73.80;;;;;;4992213;28;85666;-70
2022/06/05 12:02:35;;;;;;;11.23;8.43;;;22.10;72.70;;;;;;4961224;28;86236;-70
2022/06/05 12:05:15;;;;;;;23.77;9.32;;;22.10;72.70;;;;;;4955977;28;87034;-70
2022/06/05 12:07:43;;;;;;;11.38;8.55;;;22.10;72.40;;;;;;4983144;28;86539;-70
2022/06/05 12:10:22;;;;;;;11.27;9.27;;;22.10;72.30;;;;;;4991755;28;86315;-70
2022/06/05 12:12:55;;;;;;;12.63;9.77;;;22.10;72.30;;;;;;4992134;28;85671;-70
2022/06/05 12:15:39;;;;;;;13.52;9.27;;;22.10;72.40;;;;;;4991779;28;86412;-70
2022/06/05 12:18:11;;;;;;;15.75;9.25;;;22.10;72.60;;;;;;4991473;28;85620;-70
2022/06/05 12:20:51;;;;;;;9.68;8.73;;;22.10;72.70;;;;;;4991272;28;86022;-71
2022/06/05 12:23:31;;;;;;;11.10;9.25;;;22.10;71.90;;;;;;4982288;28;89772;-71
2022/06/05 12:26:01;;;;;;;12.07;8.98;;;22.10;71.80;;;;;;4977069;28;87809;-70
2022/06/05 12:28:59;;;;;;;12.05;8.82;;;22.10;71.60;;;;;;4991746;28;86557;-69
2022/06/05 12:31:46;;;;;;;11.27;9.10;;;22.10;71.60;;;;;;4989482;28;86136;-70
2022/06/05 12:34:20;;;;;;;10.90;8.85;;;22.10;70.60;;;;;;4991645;28;86615;-70
2022/06/05 12:37:13;;;;;;;12.50;9.52;;;22.10;70.70;;;;;;4991292;28;86955;-70
2022/06/05 12:39:47;;;;;;;10.95;9.52;;;22.10;71.00;;;;;;4990918;28;86946;-70
2022/06/05 12:42:15;;;;;;;10.98;9.80;;;22.10;70.90;;;;;;4990716;28;86613;-70
2022/06/05 12:44:44;;;;;;;10.73;8.60;;;22.10;70.70;;;;;;4989839;28;86964;-70
2022/06/05 12:47:31;;;;;;;9.80;8.80;;;22.10;70.70;;;;;;4987499;28;86887;-71
2022/06/05 12:50:16;;;;;;;11.05;8.88;;;22.10;73.10;;;;;;4990070;28;85677;-70
2022/06/05 12:53:04;;;;;;;11.10;8.80;;;22.10;72.20;;;;;;4992017;28;86412;-70
2022/06/05 12:56:11;;;;;;;11.43;9.70;;;22.10;72.40;;;;;;4991478;28;87044;-70
2022/06/05 12:58:58;;;;;;;14.75;11.27;;;22.10;72.50;;;;;;4960278;28;86868;-69
2022/06/05 13:01:29;;;;;;;10.95;9.10;;;22.10;72.60;;;;;;4986433;28;86695;-69
2022/06/05 13:04:02;;;;;;;11.63;9.63;;;22.10;72.00;;;;;;4983278;28;86092;-70
2022/06/05 13:06:47;;;;;;;10.50;9.23;;;22.10;72.60;;;;;;4991859;28;86216;-71
2022/06/05 13:09:36;;;;;;;10.32;8.80;;;22.10;71.90;;;;;;4990913;28;86400;-69
2022/06/05 13:12:10;;;;;;;10.10;9.13;;;22.10;72.00;;;;;;4990914;28;86865;-70
2022/06/05 13:14:41;;;;;;;12.63;10.02;;;22.10;72.10;;;;;;4991056;28;86038;-70
2022/06/05 13:17:10;;;;;;;16.33;8.95;;;22.10;71.80;;;;;;4989317;28;87080;-70
2022/06/05 13:19:47;;;;;;;17.25;10.52;;;22.10;72.70;;;;;;4990816;28;86409;-71
2022/06/05 13:22:23;;;;;;;21.08;9.57;;;22.10;73.70;;;;;;4982386;28;86813;-69
2022/06/05 13:25:16;;;;;;;13.13;9.30;;;22.20;73.00;;;;;;4987305;28;85787;-69
2022/06/05 13:27:47;;;;;;;11.95;10.35;;;22.10;72.40;;;;;;4987889;28;87439;-69
2022/06/05 13:30:22;;;;;;;14.60;10.65;;;22.10;72.20;;;;;;4986688;28;87166;-69
2022/06/05 13:32:59;;;;;;;11.57;9.90;;;22.10;72.30;;;;;;4987314;28;87113;-69
2022/06/05 13:35:53;;;;;;;13.02;11.18;;;22.10;72.10;;;;;;4988292;28;86121;-69